createdAt,value
2019-04-10T00:01:55.099Z,15.13
2019-04-10T00:04:25.545Z,15.83
2019-04-10T00:07:10.464Z,12.98
2019-04-10T00:09:27.482Z,14.03
2019-04-10T00:11:57.077Z,14.75
2019-04-10T00:14:30.031Z,13.18
2019-04-10T00:17:02.763Z,13.83
2019-04-10T00:19:35.799Z,12.60
2019-04-10T00:22:06.292Z,14.30
2019-04-10T00:24:37.813Z,15.78
2019-04-10T00:27:08.927Z,14.45
2019-04-10T00:29:38.428Z,16.10
2019-04-10T00:32:09.849Z,16.32
2019-04-10T00:34:42.008Z,15.23
2019-04-10T00:37:22.038Z,13.25
2019-04-10T00:39:44.558Z,13.45
2019-04-10T00:42:15.095Z,16.48
2019-04-10T00:44:45.869Z,15.35
2019-04-10T00:47:17.008Z,13.98
2019-04-10T00:49:46.564Z,13.48
2019-04-10T00:52:16.625Z,16.45
2019-04-10T00:54:49.028Z,15.93
2019-04-10T00:57:21.245Z,15.60
2019-04-10T00:59:50.812Z,12.95
2019-04-10T01:02:20.613Z,14.45
2019-04-10T01:04:50.905Z,17.67
2019-04-10T01:07:32.581Z,15.88
2019-04-10T01:09:55.506Z,15.45
2019-04-10T01:12:26.605Z,16.70
2019-04-10T01:15:00.187Z,17.62
2019-04-10T01:17:31.256Z,16.97
2019-04-10T01:20:02.531Z,17.37
2019-04-10T01:22:33.772Z,16.32
2019-04-10T01:25:08.298Z,14.85
2019-04-10T01:27:38.317Z,17.27
2019-04-10T01:30:08.749Z,18.80
2019-04-10T01:32:38.251Z,16.82
2019-04-10T01:35:08.254Z,18.07
2019-04-10T01:37:48.719Z,18.20
2019-04-10T01:40:08.802Z,18.90
2019-04-10T01:42:38.811Z,17.30
2019-04-10T01:45:09.302Z,18.17
2019-04-10T01:47:39.944Z,16.50
2019-04-10T01:50:10.463Z,16.32
2019-04-10T01:52:40.052Z,16.77
2019-04-10T01:55:21.144Z,15.60
2019-04-10T01:57:40.787Z,17.80
2019-04-10T02:00:13.234Z,17.52
2019-04-10T02:02:47.680Z,18.52
2019-04-10T02:05:17.146Z,18.25
2019-04-10T02:07:59.392Z,17.82
2019-04-10T02:10:18.494Z,18.55
2019-04-10T02:12:48.076Z,17.75
2019-04-10T02:15:17.782Z,18.57
2019-04-10T02:17:47.362Z,18.23
2019-04-10T02:20:16.893Z,19.75
2019-04-10T02:22:47.979Z,19.60
2019-04-10T02:25:17.937Z,19.25
2019-04-10T02:27:47.508Z,18.75
2019-04-10T02:30:19.487Z,19.67
2019-04-10T02:32:50.433Z,19.77
2019-04-10T02:35:22.517Z,18.35
2019-04-10T02:37:56.236Z,19.07
2019-04-10T02:40:25.867Z,20.68
2019-04-10T02:42:56.533Z,18.15
2019-04-10T02:45:26.082Z,20.35
2019-04-10T02:47:56.600Z,19.87
2019-04-10T02:50:27.241Z,19.17
2019-04-10T02:52:57.319Z,20.77
2019-04-10T02:55:29.152Z,20.20
2019-04-10T02:58:00.791Z,17.00
2019-04-10T03:00:30.443Z,19.92
2019-04-10T03:03:03.544Z,18.95
2019-04-10T03:05:38.340Z,16.75
2019-04-10T03:08:09.008Z,19.35
2019-04-10T03:10:47.822Z,19.00
2019-04-10T03:13:11.652Z,21.20
2019-04-10T03:15:43.424Z,19.77
2019-04-10T03:18:13.159Z,18.52
2019-04-10T03:20:42.782Z,17.67
2019-04-10T03:23:15.575Z,17.80
2019-04-10T03:25:45.487Z,19.37
2019-04-10T03:28:14.971Z,18.37
2019-04-10T03:30:46.266Z,18.60
2019-04-10T03:33:22.665Z,19.67
2019-04-10T03:35:54.757Z,21.25
2019-04-10T03:38:24.263Z,21.65
2019-04-10T03:40:53.605Z,18.75
2019-04-10T03:43:24.094Z,21.25
2019-04-10T03:45:53.431Z,23.22
2019-04-10T03:48:23.039Z,21.17
2019-04-10T03:50:52.556Z,22.00
2019-04-10T03:53:22.158Z,22.27
2019-04-10T03:55:53.552Z,19.20
2019-04-10T03:58:23.237Z,18.37
2019-04-10T04:00:52.722Z,21.80
2019-04-10T04:03:23.255Z,21.57
2019-04-10T04:05:53.136Z,21.80
2019-04-10T04:08:23.501Z,20.30
2019-04-10T04:10:53.186Z,24.43
2019-04-10T04:13:23.613Z,22.85
2019-04-10T04:15:54.691Z,21.05
2019-04-10T04:18:24.865Z,20.72
2019-04-10T04:20:55.057Z,21.30
2019-04-10T04:23:25.648Z,21.80
2019-04-10T04:25:59.167Z,20.48
2019-04-10T04:28:28.582Z,21.27
2019-04-10T04:30:58.880Z,25.08
2019-04-10T04:33:28.533Z,23.50
2019-04-10T04:35:59.905Z,21.35
2019-04-10T04:38:32.217Z,24.07
2019-04-10T04:41:02.416Z,27.73
2019-04-10T04:43:32.739Z,22.05
2019-04-10T04:46:03.220Z,22.22
2019-04-10T04:48:32.996Z,23.35
2019-04-10T04:51:03.204Z,19.50
2019-04-10T04:53:32.862Z,22.70
2019-04-10T04:56:02.220Z,22.85
2019-04-10T04:58:31.609Z,23.30
2019-04-10T05:01:02.116Z,20.82
2019-04-10T05:03:31.523Z,23.95
2019-04-10T05:06:03.762Z,20.25
2019-04-10T05:08:34.392Z,22.32
2019-04-10T05:11:04.332Z,20.48
2019-04-10T05:13:34.791Z,21.65
2019-04-10T05:16:04.505Z,22.17
2019-04-10T05:18:35.103Z,21.15
2019-04-10T05:21:05.125Z,18.55
2019-04-10T05:23:35.123Z,20.90
2019-04-10T05:26:04.536Z,20.72
2019-04-10T05:28:33.990Z,19.27
2019-04-10T05:31:03.365Z,17.87
2019-04-10T05:33:33.186Z,20.50
2019-04-10T05:36:02.857Z,20.85
2019-04-10T05:38:33.384Z,23.38
2019-04-10T05:41:02.818Z,17.00
2019-04-10T05:43:34.190Z,16.30
2019-04-10T05:46:04.874Z,19.85
2019-04-10T05:48:36.092Z,19.57
2019-04-10T05:51:07.495Z,19.77
2019-04-10T05:53:36.586Z,18.40
2019-04-10T05:56:07.120Z,18.67
2019-04-10T05:58:36.798Z,20.37
2019-04-10T06:01:07.509Z,19.92
2019-04-10T06:03:37.037Z,21.73
2019-04-10T06:06:06.459Z,70.50
2019-04-10T06:08:37.488Z,16.55
2019-04-10T06:11:10.664Z,16.93
2019-04-10T06:14:05.936Z,22.05
2019-04-10T06:16:37.116Z,19.67
2019-04-10T06:19:07.344Z,18.52
2019-04-10T06:21:41.890Z,21.87
2019-04-10T06:24:12.640Z,19.35
2019-04-10T06:26:42.054Z,19.67
2019-04-10T06:29:11.423Z,17.85
2019-04-10T06:31:41.031Z,19.07
2019-04-10T06:34:11.713Z,15.65
2019-04-10T06:36:41.732Z,17.65
2019-04-10T06:39:11.178Z,20.65
2019-04-10T06:41:41.149Z,19.40
2019-04-10T06:44:11.827Z,16.23
2019-04-10T06:46:41.809Z,15.55
2019-04-10T06:49:12.198Z,16.75
2019-04-10T06:51:45.927Z,19.05
2019-04-10T06:54:16.960Z,16.95
2019-04-10T06:56:48.340Z,17.10
2019-04-10T06:59:17.752Z,17.62
2019-04-10T07:01:51.394Z,16.20
2019-04-10T07:04:22.768Z,16.67
2019-04-10T07:06:58.010Z,20.95
2019-04-10T07:09:26.191Z,17.73
2019-04-10T07:12:03.053Z,17.42
2019-04-10T07:14:28.709Z,16.95
2019-04-10T07:17:05.078Z,16.35
2019-04-10T07:19:33.022Z,16.82
2019-04-10T07:22:08.324Z,18.10
2019-04-10T07:24:37.007Z,16.42
2019-04-10T07:27:06.277Z,20.35
2019-04-10T07:29:36.335Z,14.98
2019-04-10T07:32:08.650Z,16.73
2019-04-10T07:34:38.334Z,16.45
2019-04-10T07:37:10.660Z,14.15
2019-04-10T07:39:39.556Z,12.68
2019-04-10T07:42:11.991Z,15.32
2019-04-10T07:44:41.365Z,18.50
2019-04-10T07:47:11.114Z,13.48
2019-04-10T07:49:41.834Z,13.35
2019-04-10T07:52:24.086Z,14.63
2019-04-10T07:54:54.634Z,12.07
2019-04-10T07:57:24.948Z,15.78
2019-04-10T07:59:54.629Z,16.23
2019-04-10T08:02:24.089Z,18.48
2019-04-10T08:04:53.913Z,16.05
2019-04-10T08:07:29.812Z,18.27
2019-04-10T08:09:54.494Z,12.03
2019-04-10T08:12:23.948Z,15.83
2019-04-10T08:14:54.043Z,16.73
2019-04-10T08:17:23.936Z,15.30
2019-04-10T08:19:53.574Z,16.48
2019-04-10T08:22:22.951Z,18.67
2019-04-10T08:24:53.513Z,15.43
2019-04-10T08:27:23.033Z,14.68
2019-04-10T08:29:53.412Z,15.23
2019-04-10T08:32:23.651Z,14.28
2019-04-10T08:34:53.345Z,15.70
2019-04-10T08:37:22.715Z,20.15
2019-04-10T08:39:52.607Z,13.78
2019-04-10T08:42:22.475Z,15.80
2019-04-10T08:44:52.175Z,15.28
2019-04-10T08:47:22.575Z,11.88
2019-04-10T08:49:52.860Z,13.13
2019-04-10T08:52:22.792Z,20.10
2019-04-10T08:54:54.701Z,12.88
2019-04-10T08:57:24.033Z,13.95
2019-04-10T08:59:54.153Z,13.50
2019-04-10T09:02:24.138Z,14.78
2019-04-10T09:04:55.257Z,15.15
2019-04-10T09:07:24.689Z,19.20
2019-04-10T09:09:54.186Z,18.37
2019-04-10T09:12:24.018Z,16.48
2019-04-10T09:14:53.881Z,15.72
2019-04-10T09:17:23.441Z,20.43
2019-04-10T09:19:54.006Z,17.45
2019-04-10T09:22:24.570Z,17.80
2019-04-10T09:24:54.908Z,13.53
2019-04-10T09:27:24.757Z,15.13
2019-04-10T09:29:54.887Z,16.02
2019-04-10T09:32:24.285Z,14.15
2019-04-10T09:34:53.720Z,14.18
2019-04-10T09:37:24.105Z,14.83
2019-04-10T09:39:54.981Z,14.47
2019-04-10T09:42:25.628Z,18.20
2019-04-10T09:44:55.332Z,13.18
2019-04-10T09:47:24.920Z,18.87
2019-04-10T09:49:55.487Z,16.35
2019-04-10T09:52:25.765Z,14.87
2019-04-10T09:54:55.498Z,16.50
2019-04-10T09:57:24.912Z,13.38
2019-04-10T09:59:54.591Z,16.42
2019-04-10T10:02:25.184Z,16.50
2019-04-10T10:04:55.653Z,11.50
2019-04-10T10:07:26.249Z,14.25
2019-04-10T10:10:00.434Z,13.55
2019-04-10T10:12:28.053Z,13.10
2019-04-10T10:14:57.453Z,14.78
2019-04-10T10:17:26.780Z,16.62
2019-04-10T10:19:57.422Z,14.20
2019-04-10T10:22:27.449Z,13.48
2019-04-10T10:24:57.812Z,18.90
2019-04-10T10:27:27.520Z,14.53
2019-04-10T10:29:57.826Z,12.95
2019-04-10T10:32:28.924Z,14.33
2019-04-10T10:34:58.845Z,16.42
2019-04-10T10:37:28.557Z,14.65
2019-04-10T10:39:57.885Z,16.32
2019-04-10T10:42:27.612Z,16.90
2019-04-10T10:44:58.470Z,17.62
2019-04-10T10:47:29.283Z,16.32
2019-04-10T10:49:59.219Z,14.75
2019-04-10T10:52:28.564Z,14.03
2019-04-10T10:54:58.971Z,14.45
2019-04-10T10:57:28.651Z,13.93
2019-04-10T10:59:58.046Z,14.68
2019-04-10T11:02:27.747Z,15.85
2019-04-10T11:04:57.844Z,14.50
2019-04-10T11:07:27.389Z,13.70
2019-04-10T11:09:56.989Z,13.98
2019-04-10T11:12:26.594Z,13.50
2019-04-10T11:14:56.249Z,14.18
2019-04-10T11:17:25.775Z,11.00
2019-04-10T11:19:55.877Z,13.62
2019-04-10T11:22:26.439Z,14.98
2019-04-10T11:24:56.125Z,18.40
2019-04-10T11:27:25.551Z,15.18
2019-04-10T11:29:55.152Z,12.20
2019-04-10T11:32:24.583Z,12.78
2019-04-10T11:34:55.591Z,10.75
2019-04-10T11:37:35.029Z,13.20
2019-04-10T11:39:56.614Z,11.60
2019-04-10T11:42:26.596Z,10.53
2019-04-10T11:44:56.902Z,11.63
2019-04-10T11:47:26.892Z,11.93
2019-04-10T11:49:58.591Z,13.60
2019-04-10T11:55:08.764Z,12.37
2019-04-10T11:57:32.344Z,9.78
2019-04-10T12:00:02.332Z,10.28
2019-04-10T12:02:34.367Z,12.03
2019-04-10T12:12:40.195Z,12.80
2019-04-10T12:15:10.149Z,10.58
2019-04-10T12:17:40.669Z,11.65
2019-04-10T12:20:11.129Z,11.03
2019-04-10T12:22:40.872Z,11.95
2019-04-10T12:25:10.934Z,11.45
2019-04-10T12:27:42.266Z,11.40
2019-04-10T12:30:13.228Z,11.53
2019-04-10T12:32:43.067Z,9.68
2019-04-10T12:35:13.699Z,10.28
2019-04-10T12:37:43.361Z,10.70
2019-04-10T12:40:13.957Z,10.38
2019-04-10T12:42:44.157Z,12.23
2019-04-10T12:45:14.260Z,13.03
2019-04-10T12:47:43.655Z,11.48
2019-04-10T12:50:14.214Z,9.68
2019-04-10T12:52:44.854Z,11.83
2019-04-10T12:55:14.715Z,10.30
2019-04-10T12:57:44.087Z,12.53
2019-04-10T13:00:16.032Z,11.68
2019-04-10T13:02:45.437Z,9.98
2019-04-10T13:05:14.848Z,13.05
2019-04-10T13:07:44.196Z,12.40
2019-04-10T13:10:14.852Z,10.30
2019-04-10T13:12:45.263Z,10.25
2019-04-10T13:15:15.335Z,11.43
2019-04-10T13:17:44.826Z,11.30
2019-04-10T13:20:15.649Z,8.63
2019-04-10T13:22:46.404Z,11.83
2019-04-10T13:25:16.334Z,12.03
2019-04-10T13:27:45.752Z,11.53
2019-04-10T13:30:16.519Z,11.45
2019-04-10T13:32:47.973Z,9.93
2019-04-10T13:35:17.923Z,10.13
2019-04-10T13:37:47.635Z,8.15
2019-04-10T13:40:29.904Z,10.98
2019-04-10T13:42:59.440Z,10.68
2019-04-10T13:45:29.084Z,10.28
2019-04-10T13:48:00.228Z,9.73
2019-04-10T13:50:30.623Z,8.43
2019-04-10T13:53:01.689Z,10.68
2019-04-10T13:55:32.700Z,11.53
2019-04-10T13:58:03.267Z,10.08
2019-04-10T14:00:39.931Z,10.40
2019-04-10T14:03:10.100Z,9.50
2019-04-10T14:05:41.237Z,10.45
2019-04-10T14:08:10.723Z,12.85
2019-04-10T14:10:41.792Z,11.70
2019-04-10T14:13:12.288Z,11.63
2019-04-10T14:15:42.222Z,13.10
2019-04-10T14:18:12.313Z,10.20
2019-04-10T14:20:41.920Z,12.50
2019-04-10T14:23:12.944Z,11.35
2019-04-10T14:25:47.673Z,12.20
2019-04-10T14:28:20.350Z,10.32
2019-04-10T14:30:49.752Z,10.75
2019-04-10T14:33:19.157Z,10.10
2019-04-10T14:35:49.821Z,10.18
2019-04-10T14:38:19.316Z,9.73
2019-04-10T14:40:49.406Z,11.43
2019-04-10T14:43:18.998Z,12.37
2019-04-10T14:45:48.375Z,9.48
2019-04-10T14:48:20.238Z,13.45
2019-04-10T14:50:49.731Z,10.15
2019-04-10T14:53:19.339Z,9.58
2019-04-10T14:55:49.314Z,10.40
2019-04-10T14:58:27.464Z,12.95
2019-04-10T15:00:53.530Z,9.38
2019-04-10T15:03:22.869Z,10.48
2019-04-10T15:05:54.509Z,10.13
2019-04-10T15:08:25.868Z,8.98
2019-04-10T15:10:55.515Z,10.32
2019-04-10T15:13:25.749Z,10.05
2019-04-10T15:15:56.609Z,10.13
2019-04-10T15:18:26.792Z,12.33
2019-04-10T15:20:56.693Z,10.82
2019-04-10T15:23:26.141Z,10.88
2019-04-10T15:25:55.573Z,9.75
2019-04-10T15:28:25.406Z,11.35
2019-04-10T15:30:55.113Z,10.43
2019-04-10T15:33:24.725Z,9.43
2019-04-10T15:35:54.085Z,11.45
2019-04-10T15:38:24.147Z,11.53
2019-04-10T15:40:54.611Z,9.55
2019-04-10T15:43:25.407Z,10.43
2019-04-10T15:45:55.371Z,7.70
2019-04-10T15:48:25.147Z,9.90
2019-04-10T15:50:55.804Z,9.50
2019-04-10T15:53:26.392Z,10.53
2019-04-10T15:55:56.455Z,9.83
2019-04-10T15:58:29.196Z,9.00
2019-04-10T16:00:59.404Z,9.50
2019-04-10T16:03:28.965Z,8.38
2019-04-10T16:05:59.199Z,8.80
2019-04-10T16:08:29.198Z,8.38
2019-04-10T16:11:15.660Z,9.43
2019-04-10T16:13:46.662Z,9.98
2019-04-10T16:16:35.450Z,11.18
2019-04-10T16:19:12.536Z,10.78
2019-04-10T16:21:41.891Z,10.60
2019-04-10T16:24:14.231Z,10.23
2019-04-10T16:26:43.924Z,9.83
2019-04-10T16:29:13.441Z,10.32
2019-04-10T16:31:43.940Z,9.43
2019-04-10T16:34:15.643Z,10.45
2019-04-10T16:36:45.825Z,9.23
2019-04-10T16:39:22.244Z,8.68
2019-04-10T16:41:52.399Z,11.57
2019-04-10T16:44:22.035Z,9.10
2019-04-10T16:46:51.398Z,9.35
2019-04-10T16:49:22.517Z,10.40
2019-04-10T16:51:52.443Z,11.68
2019-04-10T16:54:22.084Z,9.00
2019-04-10T16:56:51.467Z,9.68
2019-04-10T16:59:21.422Z,10.35
2019-04-10T17:01:51.181Z,9.65
2019-04-10T17:04:23.478Z,11.03
2019-04-10T17:06:52.897Z,11.68
2019-04-10T17:09:24.835Z,11.68
2019-04-10T17:11:56.146Z,9.55
2019-04-10T17:14:25.528Z,8.30
2019-04-10T17:16:55.743Z,8.50
2019-04-10T17:19:25.789Z,10.88
2019-04-10T17:21:55.495Z,12.60
2019-04-10T17:24:25.094Z,8.93
2019-04-10T17:26:55.787Z,10.30
2019-04-10T17:29:25.270Z,12.35
2019-04-10T17:31:55.043Z,8.98
2019-04-10T17:34:24.976Z,8.85
2019-04-10T17:36:54.481Z,8.08
2019-04-10T17:39:25.098Z,9.60
2019-04-10T17:41:55.767Z,9.05
2019-04-10T17:44:25.728Z,9.35
2019-04-10T17:46:55.651Z,8.70
2019-04-10T17:49:27.917Z,9.05
2019-04-10T17:51:59.832Z,8.23
2019-04-10T17:54:29.752Z,10.98
2019-04-10T17:57:00.324Z,7.92
2019-04-10T17:59:30.190Z,10.98
2019-04-10T18:02:02.511Z,8.95
2019-04-10T18:04:32.007Z,8.68
2019-04-10T18:07:01.401Z,9.85
2019-04-10T18:09:32.695Z,10.65
2019-04-10T18:12:03.833Z,9.90
2019-04-10T18:14:36.799Z,10.82
2019-04-10T18:17:06.580Z,14.98
2019-04-10T18:19:36.833Z,17.30
2019-04-10T18:22:06.771Z,21.20
2019-04-10T18:24:40.069Z,10.93
2019-04-10T18:27:08.279Z,9.80
2019-04-10T18:29:39.224Z,12.82
2019-04-10T18:32:09.704Z,13.28
2019-04-10T18:34:40.267Z,17.10
2019-04-10T18:37:11.086Z,15.20
2019-04-10T18:39:40.993Z,8.93
2019-04-10T18:42:11.839Z,11.75
2019-04-10T18:44:42.784Z,9.38
2019-04-10T18:47:18.622Z,10.48
2019-04-10T18:49:49.828Z,10.75
2019-04-10T18:55:12.211Z,10.70
2019-04-10T18:57:41.721Z,10.85
2019-04-10T19:00:32.404Z,9.43
2019-04-10T19:03:09.609Z,11.70
2019-04-10T19:05:41.014Z,9.25
2019-04-10T19:08:14.050Z,11.00
2019-04-10T19:10:45.355Z,9.08
2019-04-10T19:13:15.504Z,10.65
2019-04-10T19:15:45.329Z,9.08
2019-04-10T19:18:15.260Z,9.90
2019-04-10T19:20:45.103Z,9.80
2019-04-10T19:23:15.029Z,10.28
2019-04-10T19:25:45.570Z,10.00
2019-04-10T19:28:27.661Z,10.95
2019-04-10T19:30:48.907Z,11.05
2019-04-10T19:33:18.858Z,10.53
2019-04-10T19:35:48.465Z,8.85
2019-04-10T19:38:19.758Z,10.82
2019-04-10T19:40:49.945Z,16.10
2019-04-10T19:43:19.849Z,11.03
2019-04-10T19:45:50.253Z,8.35
2019-04-10T19:48:21.399Z,10.95
2019-04-10T19:50:54.777Z,38.05
2019-04-10T19:53:24.818Z,9.20
2019-04-10T19:55:55.935Z,9.73
2019-04-10T19:58:26.058Z,10.35
2019-04-10T20:01:11.086Z,10.82
2019-04-10T20:03:40.744Z,12.35
2019-04-10T20:06:10.238Z,9.05
2019-04-10T20:08:39.945Z,11.10
2019-04-10T20:11:12.888Z,9.38
2019-04-10T20:13:42.926Z,9.60
2019-04-10T20:16:13.140Z,9.95
2019-04-10T20:18:43.977Z,9.83
2019-04-10T20:21:15.759Z,9.88
2019-04-10T20:23:45.978Z,8.18
2019-04-10T20:26:15.723Z,8.53
2019-04-10T20:28:45.100Z,8.40
2019-04-10T20:31:17.172Z,8.50
2019-04-10T20:33:47.218Z,9.08
2019-04-10T20:36:17.230Z,8.25
2019-04-10T20:38:46.793Z,8.00
2019-04-10T20:41:16.302Z,8.28
2019-04-10T20:43:46.973Z,8.23
2019-04-10T20:46:16.590Z,9.33
2019-04-10T20:48:46.742Z,7.65
2019-04-10T20:51:17.115Z,10.08
2019-04-10T20:53:48.467Z,10.23
2019-04-10T20:56:18.776Z,10.23
2019-04-10T20:58:49.177Z,11.18
2019-04-10T21:01:18.497Z,8.83
2019-04-10T21:03:48.111Z,9.63
2019-04-10T21:06:17.652Z,7.03
2019-04-10T21:08:48.124Z,8.53
2019-04-10T21:11:18.685Z,7.15
2019-04-10T21:13:48.982Z,6.85
2019-04-10T21:16:19.706Z,7.47
2019-04-10T21:18:49.169Z,8.65
2019-04-10T21:21:18.680Z,9.48
2019-04-10T21:23:48.688Z,8.50
2019-04-10T21:26:18.194Z,8.23
2019-04-10T21:28:48.107Z,8.93
2019-04-10T21:31:38.575Z,9.40
2019-04-10T21:34:26.301Z,9.85
2019-04-10T21:36:59.756Z,7.47
2019-04-10T21:39:29.728Z,10.15
2019-04-10T21:42:11.114Z,7.75
2019-04-10T21:44:31.004Z,9.48
2019-04-10T21:47:01.360Z,7.42
2019-04-10T21:49:30.967Z,8.93
2019-04-10T21:52:06.024Z,9.58
2019-04-10T21:54:35.361Z,11.25
2019-04-10T21:57:05.427Z,10.00
2019-04-10T21:59:35.003Z,8.48
2019-04-10T22:02:04.968Z,10.63
2019-04-10T22:04:35.676Z,9.20
2019-04-10T22:07:23.823Z,10.00
2019-04-10T22:10:12.021Z,10.35
2019-04-10T22:12:46.967Z,9.08
2019-04-10T22:15:20.386Z,10.63
2019-04-10T22:17:50.209Z,9.10
2019-04-10T22:20:19.837Z,7.60
2019-04-10T22:22:49.271Z,10.10
2019-04-10T22:25:19.493Z,9.35
2019-04-10T22:27:49.956Z,8.18
2019-04-10T22:30:19.381Z,10.03
2019-04-10T22:32:49.285Z,10.23
2019-04-10T22:35:19.420Z,8.80
2019-04-10T22:37:48.919Z,8.45
2019-04-10T22:40:21.472Z,7.80
2019-04-10T22:42:51.356Z,8.78
2019-04-10T22:45:32.672Z,8.33
2019-04-10T22:48:04.077Z,8.68
2019-04-10T22:50:34.462Z,9.13
2019-04-10T22:53:04.683Z,9.55
2019-04-10T22:55:34.150Z,9.33
2019-04-10T22:58:10.704Z,8.70
2019-04-10T23:00:40.183Z,9.88
2019-04-10T23:03:09.513Z,8.85
2019-04-10T23:05:38.863Z,10.20
2019-04-10T23:08:09.374Z,8.35
2019-04-10T23:10:41.114Z,8.65
2019-04-10T23:13:11.994Z,8.93
2019-04-10T23:15:42.299Z,10.93
2019-04-10T23:18:13.088Z,10.03
2019-04-10T23:20:43.800Z,8.33
2019-04-10T23:23:13.456Z,9.85
2019-04-10T23:25:42.898Z,8.78
2019-04-10T23:28:14.005Z,8.28
2019-04-10T23:30:43.489Z,10.35
2019-04-10T23:33:21.843Z,9.35
2019-04-10T23:35:49.652Z,8.10
2019-04-10T23:38:19.444Z,8.15
2019-04-10T23:40:58.975Z,8.08
2019-04-10T23:43:29.426Z,11.40
2019-04-10T23:45:58.874Z,7.78
2019-04-10T23:48:28.719Z,9.48
2019-04-10T23:51:01.228Z,9.15
2019-04-10T23:53:38.477Z,10.95
2019-04-10T23:56:07.805Z,8.90
2019-04-10T23:58:38.028Z,9.73
